Terminal Aerodrome Forecast
Issued by NWS Austin/San Antonio, TX

Home | Current Version | Previous Version | Text Only | Print | Product List | Glossary On
Versions: 1 2 3 4 5 6 7 8 9 10 11 12 13 14 15 16 17 18 19 20 21 22 23 24 25
577
FTUS44 KEWX 301924 AAA
TAFDRT
TAF AMD
KDRT 301924Z 3019/3118 14015G22KT P6SM BKN035 BKN250
     FM310300 11009KT P6SM VCTS BKN035CB
     FM310900 09010KT P6SM OVC020=

USA.gov is the U.S. government's official web portal to all federal, state and local government web resources and services.